sensor_id;sensor_type;location;lat;lon;timestamp;P1;durP1;ratioP1;P2;durP2;ratioP2
4377;SDS011;2203;53.686;9.994;2022-12-07T00:01:36;17.50;;;10.70;;
4377;SDS011;2203;53.686;9.994;2022-12-07T00:04:04;30.37;;;9.80;;
4377;SDS011;2203;53.686;9.994;2022-12-07T00:06:30;17.30;;;10.10;;
4377;SDS011;2203;53.686;9.994;2022-12-07T00:08:57;16.97;;;10.47;;
4377;SDS011;2203;53.686;9.994;2022-12-07T00:11:23;15.30;;;9.10;;
4377;SDS011;2203;53.686;9.994;2022-12-07T00:13:53;15.20;;;9.23;;
4377;SDS011;2203;53.686;9.994;2022-12-07T00:16:20;17.13;;;10.10;;
4377;SDS011;2203;53.686;9.994;2022-12-07T00:18:47;15.70;;;10.17;;
4377;SDS011;2203;53.686;9.994;2022-12-07T00:21:13;15.47;;;8.83;;
4377;SDS011;2203;53.686;9.994;2022-12-07T00:23:43;23.23;;;10.50;;
4377;SDS011;2203;53.686;9.994;2022-12-07T00:28:39;15.97;;;9.50;;
4377;SDS011;2203;53.686;9.994;2022-12-07T00:31:06;18.33;;;10.73;;
4377;SDS011;2203;53.686;9.994;2022-12-07T00:33:33;19.87;;;10.90;;
4377;SDS011;2203;53.686;9.994;2022-12-07T00:35:59;18.00;;;10.40;;
4377;SDS011;2203;53.686;9.994;2022-12-07T00:38:27;15.80;;;9.73;;
4377;SDS011;2203;53.686;9.994;2022-12-07T00:40:58;18.30;;;10.10;;
4377;SDS011;2203;53.686;9.994;2022-12-07T00:43:25;19.13;;;9.50;;
4377;SDS011;2203;53.686;9.994;2022-12-07T00:45:51;15.33;;;9.10;;
4377;SDS011;2203;53.686;9.994;2022-12-07T00:48:16;18.67;;;10.00;;
4377;SDS011;2203;53.686;9.994;2022-12-07T00:50:42;16.80;;;9.80;;
4377;SDS011;2203;53.686;9.994;2022-12-07T00:53:07;19.37;;;9.97;;
4377;SDS011;2203;53.686;9.994;2022-12-07T00:55:33;16.63;;;9.63;;
4377;SDS011;2203;53.686;9.994;2022-12-07T00:57:59;16.20;;;9.10;;
4377;SDS011;2203;53.686;9.994;2022-12-07T01:00:24;20.10;;;10.37;;
4377;SDS011;2203;53.686;9.994;2022-12-07T01:02:50;17.40;;;8.87;;
4377;SDS011;2203;53.686;9.994;2022-12-07T01:05:15;14.00;;;9.17;;
4377;SDS011;2203;53.686;9.994;2022-12-07T01:07:40;16.53;;;9.07;;
4377;SDS011;2203;53.686;9.994;2022-12-07T01:10:06;13.50;;;8.57;;
4377;SDS011;2203;53.686;9.994;2022-12-07T01:12:32;15.83;;;9.33;;
4377;SDS011;2203;53.686;9.994;2022-12-07T01:14:57;19.43;;;8.73;;
4377;SDS011;2203;53.686;9.994;2022-12-07T01:17:23;15.17;;;8.87;;
4377;SDS011;2203;53.686;9.994;2022-12-07T01:19:48;14.43;;;8.40;;
4377;SDS011;2203;53.686;9.994;2022-12-07T01:22:13;15.60;;;7.47;;
4377;SDS011;2203;53.686;9.994;2022-12-07T01:24:39;11.03;;;7.23;;
4377;SDS011;2203;53.686;9.994;2022-12-07T01:27:04;15.13;;;7.80;;
4377;SDS011;2203;53.686;9.994;2022-12-07T01:29:29;18.50;;;7.37;;
4377;SDS011;2203;53.686;9.994;2022-12-07T01:31:55;15.00;;;7.90;;
4377;SDS011;2203;53.686;9.994;2022-12-07T01:34:20;11.83;;;7.03;;
4377;SDS011;2203;53.686;9.994;2022-12-07T01:36:46;11.73;;;7.60;;
4377;SDS011;2203;53.686;9.994;2022-12-07T01:39:11;11.77;;;7.33;;
4377;SDS011;2203;53.686;9.994;2022-12-07T01:41:37;18.90;;;6.80;;
4377;SDS011;2203;53.686;9.994;2022-12-07T01:44:19;13.80;;;7.13;;
4377;SDS011;2203;53.686;9.994;2022-12-07T01:46:53;17.53;;;8.23;;
4377;SDS011;2203;53.686;9.994;2022-12-07T01:49:24;10.87;;;6.37;;
4377;SDS011;2203;53.686;9.994;2022-12-07T01:51:56;18.37;;;7.43;;
4377;SDS011;2203;53.686;9.994;2022-12-07T01:54:25;13.67;;;7.33;;
4377;SDS011;2203;53.686;9.994;2022-12-07T01:56:52;20.77;;;7.90;;
4377;SDS011;2203;53.686;9.994;2022-12-07T01:59:20;10.80;;;6.50;;
4377;SDS011;2203;53.686;9.994;2022-12-07T02:01:46;13.90;;;7.07;;
4377;SDS011;2203;53.686;9.994;2022-12-07T02:04:12;16.03;;;6.23;;
4377;SDS011;2203;53.686;9.994;2022-12-07T02:06:38;15.30;;;5.67;;
4377;SDS011;2203;53.686;9.994;2022-12-07T02:09:03;13.27;;;6.60;;
4377;SDS011;2203;53.686;9.994;2022-12-07T02:11:29;10.03;;;5.30;;
4377;SDS011;2203;53.686;9.994;2022-12-07T02:13:54;13.23;;;6.47;;
4377;SDS011;2203;53.686;9.994;2022-12-07T02:25:21;11.93;;;5.47;;
4377;SDS011;2203;53.686;9.994;2022-12-07T02:28:01;8.57;;;4.50;;
4377;SDS011;2203;53.686;9.994;2022-12-07T02:30:31;23.67;;;5.63;;
4377;SDS011;2203;53.686;9.994;2022-12-07T02:33:12;15.27;;;5.57;;
4377;SDS011;2203;53.686;9.994;2022-12-07T02:35:55;11.97;;;6.23;;
4377;SDS011;2203;53.686;9.994;2022-12-07T02:38:26;10.37;;;4.17;;
4377;SDS011;2203;53.686;9.994;2022-12-07T02:41:19;12.40;;;4.43;;
4377;SDS011;2203;53.686;9.994;2022-12-07T02:43:52;9.60;;;2.87;;
4377;SDS011;2203;53.686;9.994;2022-12-07T02:46:25;6.67;;;3.60;;
4377;SDS011;2203;53.686;9.994;2022-12-07T02:48:53;8.63;;;3.30;;
4377;SDS011;2203;53.686;9.994;2022-12-07T02:51:19;12.13;;;3.70;;
4377;SDS011;2203;53.686;9.994;2022-12-07T02:53:46;12.00;;;3.40;;
4377;SDS011;2203;53.686;9.994;2022-12-07T03:04:19;5.43;;;2.13;;
4377;SDS011;2203;53.686;9.994;2022-12-07T03:07:06;3.13;;;2.00;;
4377;SDS011;2203;53.686;9.994;2022-12-07T03:12:56;2.17;;;1.87;;
4377;SDS011;2203;53.686;9.994;2022-12-07T03:15:35;7.10;;;1.80;;
4377;SDS011;2203;53.686;9.994;2022-12-07T03:18:16;4.80;;;1.40;;
4377;SDS011;2203;53.686;9.994;2022-12-07T03:20:43;8.70;;;1.87;;
4377;SDS011;2203;53.686;9.994;2022-12-07T03:23:09;2.20;;;1.30;;
4377;SDS011;2203;53.686;9.994;2022-12-07T03:25:38;1.77;;;1.23;;
4377;SDS011;2203;53.686;9.994;2022-12-07T03:28:06;3.77;;;1.30;;
4377;SDS011;2203;53.686;9.994;2022-12-07T03:30:33;2.53;;;0.90;;
4377;SDS011;2203;53.686;9.994;2022-12-07T03:33:11;2.30;;;1.20;;
4377;SDS011;2203;53.686;9.994;2022-12-07T03:35:42;3.63;;;1.60;;
4377;SDS011;2203;53.686;9.994;2022-12-07T03:38:20;5.67;;;1.27;;
4377;SDS011;2203;53.686;9.994;2022-12-07T03:40:54;4.07;;;1.50;;
4377;SDS011;2203;53.686;9.994;2022-12-07T03:43:31;3.07;;;1.03;;
4377;SDS011;2203;53.686;9.994;2022-12-07T03:46:19;3.27;;;1.50;;
4377;SDS011;2203;53.686;9.994;2022-12-07T03:51:34;11.53;;;1.07;;
4377;SDS011;2203;53.686;9.994;2022-12-07T03:54:09;3.80;;;1.13;;
4377;SDS011;2203;53.686;9.994;2022-12-07T03:56:39;8.60;;;1.63;;
4377;SDS011;2203;53.686;9.994;2022-12-07T03:59:05;5.60;;;1.50;;
4377;SDS011;2203;53.686;9.994;2022-12-07T04:01:31;3.27;;;1.20;;
4377;SDS011;2203;53.686;9.994;2022-12-07T04:03:56;6.97;;;1.50;;
4377;SDS011;2203;53.686;9.994;2022-12-07T04:06:24;1.80;;;1.47;;
4377;SDS011;2203;53.686;9.994;2022-12-07T04:08:50;2.37;;;1.30;;
4377;SDS011;2203;53.686;9.994;2022-12-07T04:11:15;6.50;;;1.33;;
4377;SDS011;2203;53.686;9.994;2022-12-07T04:13:41;2.63;;;1.70;;
4377;SDS011;2203;53.686;9.994;2022-12-07T04:16:24;7.33;;;1.57;;
4377;SDS011;2203;53.686;9.994;2022-12-07T04:18:50;4.37;;;1.70;;
4377;SDS011;2203;53.686;9.994;2022-12-07T04:21:15;3.10;;;1.63;;
4377;SDS011;2203;53.686;9.994;2022-12-07T04:23:41;9.90;;;1.80;;
4377;SDS011;2203;53.686;9.994;2022-12-07T04:26:06;3.47;;;1.47;;
4377;SDS011;2203;53.686;9.994;2022-12-07T04:28:32;5.70;;;1.63;;
4377;SDS011;2203;53.686;9.994;2022-12-07T04:30:57;4.77;;;2.03;;
4377;SDS011;2203;53.686;9.994;2022-12-07T04:33:22;6.00;;;2.20;;
4377;SDS011;2203;53.686;9.994;2022-12-07T04:35:48;5.70;;;2.37;;
4377;SDS011;2203;53.686;9.994;2022-12-07T04:38:13;4.40;;;2.20;;
4377;SDS011;2203;53.686;9.994;2022-12-07T04:40:38;5.87;;;2.17;;
4377;SDS011;2203;53.686;9.994;2022-12-07T04:43:04;5.57;;;2.20;;
4377;SDS011;2203;53.686;9.994;2022-12-07T04:45:29;4.20;;;2.10;;
4377;SDS011;2203;53.686;9.994;2022-12-07T04:47:55;4.83;;;2.27;;
4377;SDS011;2203;53.686;9.994;2022-12-07T04:50:20;5.50;;;2.10;;
4377;SDS011;2203;53.686;9.994;2022-12-07T04:52:45;3.27;;;1.77;;
4377;SDS011;2203;53.686;9.994;2022-12-07T04:55:11;4.20;;;1.77;;
4377;SDS011;2203;53.686;9.994;2022-12-07T04:57:36;3.43;;;1.80;;
4377;SDS011;2203;53.686;9.994;2022-12-07T05:00:02;2.33;;;1.53;;
4377;SDS011;2203;53.686;9.994;2022-12-07T05:02:28;8.00;;;2.70;;
4377;SDS011;2203;53.686;9.994;2022-12-07T05:04:53;5.67;;;2.17;;
4377;SDS011;2203;53.686;9.994;2022-12-07T05:07:18;5.07;;;2.70;;
4377;SDS011;2203;53.686;9.994;2022-12-07T05:09:44;5.80;;;2.20;;
4377;SDS011;2203;53.686;9.994;2022-12-07T05:12:09;8.13;;;2.90;;
4377;SDS011;2203;53.686;9.994;2022-12-07T05:14:35;2.57;;;2.30;;
4377;SDS011;2203;53.686;9.994;2022-12-07T05:17:00;8.67;;;2.17;;
4377;SDS011;2203;53.686;9.994;2022-12-07T05:19:25;5.97;;;2.80;;
4377;SDS011;2203;53.686;9.994;2022-12-07T05:21:51;8.97;;;2.90;;
4377;SDS011;2203;53.686;9.994;2022-12-07T05:24:17;2.90;;;2.37;;
4377;SDS011;2203;53.686;9.994;2022-12-07T05:26:43;5.47;;;2.13;;
4377;SDS011;2203;53.686;9.994;2022-12-07T05:29:13;6.40;;;3.03;;
4377;SDS011;2203;53.686;9.994;2022-12-07T05:31:39;3.67;;;2.37;;
4377;SDS011;2203;53.686;9.994;2022-12-07T05:34:05;3.50;;;2.43;;
4377;SDS011;2203;53.686;9.994;2022-12-07T05:36:30;5.97;;;2.90;;
4377;SDS011;2203;53.686;9.994;2022-12-07T05:38:56;6.83;;;2.20;;
4377;SDS011;2203;53.686;9.994;2022-12-07T05:41:22;4.27;;;2.60;;
4377;SDS011;2203;53.686;9.994;2022-12-07T05:44:06;4.70;;;2.70;;
4377;SDS011;2203;53.686;9.994;2022-12-07T05:46:32;5.43;;;2.60;;
4377;SDS011;2203;53.686;9.994;2022-12-07T05:48:57;7.83;;;3.00;;
4377;SDS011;2203;53.686;9.994;2022-12-07T05:51:23;10.37;;;4.50;;
4377;SDS011;2203;53.686;9.994;2022-12-07T05:53:48;7.67;;;3.00;;
4377;SDS011;2203;53.686;9.994;2022-12-07T05:56:14;3.93;;;2.50;;
4377;SDS011;2203;53.686;9.994;2022-12-07T05:58:39;5.97;;;3.00;;
4377;SDS011;2203;53.686;9.994;2022-12-07T06:01:23;5.53;;;3.10;;
4377;SDS011;2203;53.686;9.994;2022-12-07T06:03:49;4.93;;;2.53;;
4377;SDS011;2203;53.686;9.994;2022-12-07T06:06:14;5.77;;;2.73;;
4377;SDS011;2203;53.686;9.994;2022-12-07T06:08:39;7.33;;;2.50;;
4377;SDS011;2203;53.686;9.994;2022-12-07T06:11:05;8.80;;;2.80;;
4377;SDS011;2203;53.686;9.994;2022-12-07T06:13:49;8.37;;;3.27;;
4377;SDS011;2203;53.686;9.994;2022-12-07T06:16:14;7.60;;;2.57;;
4377;SDS011;2203;53.686;9.994;2022-12-07T06:18:39;4.67;;;2.73;;
4377;SDS011;2203;53.686;9.994;2022-12-07T06:21:05;11.93;;;3.37;;
4377;SDS011;2203;53.686;9.994;2022-12-07T06:23:30;14.57;;;3.17;;
4377;SDS011;2203;53.686;9.994;2022-12-07T06:25:56;7.23;;;3.57;;
4377;SDS011;2203;53.686;9.994;2022-12-07T06:28:21;8.47;;;3.60;;
4377;SDS011;2203;53.686;9.994;2022-12-07T06:30:46;10.80;;;3.50;;
4377;SDS011;2203;53.686;9.994;2022-12-07T06:33:12;5.10;;;3.47;;
4377;SDS011;2203;53.686;9.994;2022-12-07T06:35:37;7.17;;;3.80;;
4377;SDS011;2203;53.686;9.994;2022-12-07T06:38:02;9.80;;;3.23;;
4377;SDS011;2203;53.686;9.994;2022-12-07T06:40:28;10.37;;;3.50;;
4377;SDS011;2203;53.686;9.994;2022-12-07T06:42:53;10.43;;;3.03;;
4377;SDS011;2203;53.686;9.994;2022-12-07T06:45:19;7.30;;;2.87;;
4377;SDS011;2203;53.686;9.994;2022-12-07T06:47:44;5.10;;;2.50;;
4377;SDS011;2203;53.686;9.994;2022-12-07T06:50:09;7.33;;;3.30;;
4377;SDS011;2203;53.686;9.994;2022-12-07T06:52:35;6.77;;;3.43;;
4377;SDS011;2203;53.686;9.994;2022-12-07T06:55:00;7.70;;;2.40;;
4377;SDS011;2203;53.686;9.994;2022-12-07T06:57:26;5.73;;;2.70;;
4377;SDS011;2203;53.686;9.994;2022-12-07T06:59:51;9.90;;;3.50;;
4377;SDS011;2203;53.686;9.994;2022-12-07T07:02:17;3.93;;;2.80;;
4377;SDS011;2203;53.686;9.994;2022-12-07T07:04:42;6.60;;;2.60;;
4377;SDS011;2203;53.686;9.994;2022-12-07T07:07:08;14.13;;;3.00;;
4377;SDS011;2203;53.686;9.994;2022-12-07T07:09:33;4.67;;;2.50;;
4377;SDS011;2203;53.686;9.994;2022-12-07T07:11:59;11.80;;;2.80;;
4377;SDS011;2203;53.686;9.994;2022-12-07T07:14:24;5.07;;;2.50;;
4377;SDS011;2203;53.686;9.994;2022-12-07T07:16:49;6.70;;;2.40;;
4377;SDS011;2203;53.686;9.994;2022-12-07T07:19:15;10.60;;;2.20;;
4377;SDS011;2203;53.686;9.994;2022-12-07T07:21:40;7.23;;;2.70;;
4377;SDS011;2203;53.686;9.994;2022-12-07T07:24:06;6.37;;;2.13;;
4377;SDS011;2203;53.686;9.994;2022-12-07T07:26:31;5.30;;;2.47;;
4377;SDS011;2203;53.686;9.994;2022-12-07T07:28:57;10.63;;;2.40;;
4377;SDS011;2203;53.686;9.994;2022-12-07T07:31:22;5.97;;;2.07;;
4377;SDS011;2203;53.686;9.994;2022-12-07T07:33:47;5.47;;;1.77;;
4377;SDS011;2203;53.686;9.994;2022-12-07T07:36:13;12.40;;;2.23;;
4377;SDS011;2203;53.686;9.994;2022-12-07T07:38:38;6.43;;;2.03;;
4377;SDS011;2203;53.686;9.994;2022-12-07T07:41:04;5.90;;;2.20;;
4377;SDS011;2203;53.686;9.994;2022-12-07T07:43:29;11.40;;;2.60;;
4377;SDS011;2203;53.686;9.994;2022-12-07T07:45:55;6.43;;;2.17;;
4377;SDS011;2203;53.686;9.994;2022-12-07T07:48:20;3.20;;;2.00;;
4377;SDS011;2203;53.686;9.994;2022-12-07T07:50:47;7.80;;;2.00;;
4377;SDS011;2203;53.686;9.994;2022-12-07T07:53:13;8.30;;;1.97;;
4377;SDS011;2203;53.686;9.994;2022-12-07T07:55:38;2.63;;;1.60;;
4377;SDS011;2203;53.686;9.994;2022-12-07T07:58:03;1.90;;;1.70;;
4377;SDS011;2203;53.686;9.994;2022-12-07T08:00:29;6.20;;;1.97;;
4377;SDS011;2203;53.686;9.994;2022-12-07T08:02:54;4.73;;;2.07;;
4377;SDS011;2203;53.686;9.994;2022-12-07T08:05:20;2.43;;;1.60;;
4377;SDS011;2203;53.686;9.994;2022-12-07T08:07:45;9.03;;;1.60;;
4377;SDS011;2203;53.686;9.994;2022-12-07T08:10:12;5.17;;;1.80;;
4377;SDS011;2203;53.686;9.994;2022-12-07T08:12:39;4.40;;;2.07;;
4377;SDS011;2203;53.686;9.994;2022-12-07T08:15:26;18.07;;;2.00;;
4377;SDS011;2203;53.686;9.994;2022-12-07T08:17:52;9.87;;;1.53;;
4377;SDS011;2203;53.686;9.994;2022-12-07T08:20:18;6.00;;;1.60;;
4377;SDS011;2203;53.686;9.994;2022-12-07T08:22:43;4.73;;;1.57;;
4377;SDS011;2203;53.686;9.994;2022-12-07T08:25:09;3.13;;;1.47;;
4377;SDS011;2203;53.686;9.994;2022-12-07T08:27:34;3.97;;;1.40;;
4377;SDS011;2203;53.686;9.994;2022-12-07T08:29:59;5.63;;;1.50;;
4377;SDS011;2203;53.686;9.994;2022-12-07T08:32:25;6.37;;;1.53;;
4377;SDS011;2203;53.686;9.994;2022-12-07T08:34:51;11.17;;;2.07;;
4377;SDS011;2203;53.686;9.994;2022-12-07T08:37:17;4.33;;;1.30;;
4377;SDS011;2203;53.686;9.994;2022-12-07T08:39:42;7.07;;;1.30;;
4377;SDS011;2203;53.686;9.994;2022-12-07T08:42:08;5.20;;;1.70;;
4377;SDS011;2203;53.686;9.994;2022-12-07T08:44:33;7.03;;;1.50;;
4377;SDS011;2203;53.686;9.994;2022-12-07T08:47:00;4.70;;;1.47;;
4377;SDS011;2203;53.686;9.994;2022-12-07T08:49:30;5.70;;;2.17;;
4377;SDS011;2203;53.686;9.994;2022-12-07T08:51:58;7.87;;;1.60;;
4377;SDS011;2203;53.686;9.994;2022-12-07T08:54:23;11.23;;;1.60;;
4377;SDS011;2203;53.686;9.994;2022-12-07T08:56:49;6.90;;;1.30;;
4377;SDS011;2203;53.686;9.994;2022-12-07T08:59:16;6.93;;;2.00;;
4377;SDS011;2203;53.686;9.994;2022-12-07T09:01:42;18.40;;;2.07;;
4377;SDS011;2203;53.686;9.994;2022-12-07T09:04:08;20.73;;;2.13;;
4377;SDS011;2203;53.686;9.994;2022-12-07T09:06:33;27.80;;;2.43;;
4377;SDS011;2203;53.686;9.994;2022-12-07T09:08:59;6.63;;;1.80;;
4377;SDS011;2203;53.686;9.994;2022-12-07T09:11:26;4.80;;;1.63;;
4377;SDS011;2203;53.686;9.994;2022-12-07T09:13:51;4.60;;;1.47;;
4377;SDS011;2203;53.686;9.994;2022-12-07T09:16:17;5.07;;;1.73;;
4377;SDS011;2203;53.686;9.994;2022-12-07T09:18:42;6.40;;;1.70;;
4377;SDS011;2203;53.686;9.994;2022-12-07T09:21:08;9.93;;;1.40;;
4377;SDS011;2203;53.686;9.994;2022-12-07T09:23:34;8.27;;;1.80;;
4377;SDS011;2203;53.686;9.994;2022-12-07T09:26:00;7.40;;;2.20;;
4377;SDS011;2203;53.686;9.994;2022-12-07T09:28:26;12.57;;;1.70;;
4377;SDS011;2203;53.686;9.994;2022-12-07T09:30:51;7.83;;;1.67;;
4377;SDS011;2203;53.686;9.994;2022-12-07T09:33:17;6.07;;;2.10;;
4377;SDS011;2203;53.686;9.994;2022-12-07T09:35:46;9.17;;;1.60;;
4377;SDS011;2203;53.686;9.994;2022-12-07T09:38:12;3.07;;;1.50;;
4377;SDS011;2203;53.686;9.994;2022-12-07T09:40:38;4.93;;;2.10;;
4377;SDS011;2203;53.686;9.994;2022-12-07T09:43:03;2.63;;;1.27;;
4377;SDS011;2203;53.686;9.994;2022-12-07T09:45:34;5.63;;;1.80;;
4377;SDS011;2203;53.686;9.994;2022-12-07T09:48:02;5.07;;;1.73;;
4377;SDS011;2203;53.686;9.994;2022-12-07T09:50:28;16.10;;;1.80;;
4377;SDS011;2203;53.686;9.994;2022-12-07T09:52:56;9.47;;;1.73;;
4377;SDS011;2203;53.686;9.994;2022-12-07T09:55:32;8.40;;;1.67;;
4377;SDS011;2203;53.686;9.994;2022-12-07T09:57:59;5.37;;;1.73;;
4377;SDS011;2203;53.686;9.994;2022-12-07T10:00:24;9.00;;;2.07;;
4377;SDS011;2203;53.686;9.994;2022-12-07T10:05:20;9.37;;;1.80;;
4377;SDS011;2203;53.686;9.994;2022-12-07T10:07:49;9.50;;;1.60;;
4377;SDS011;2203;53.686;9.994;2022-12-07T10:10:16;8.90;;;2.00;;
4377;SDS011;2203;53.686;9.994;2022-12-07T10:13:03;7.70;;;1.60;;
4377;SDS011;2203;53.686;9.994;2022-12-07T10:20:45;6.87;;;2.07;;
4377;SDS011;2203;53.686;9.994;2022-12-07T10:23:15;9.23;;;1.80;;
4377;SDS011;2203;53.686;9.994;2022-12-07T10:25:41;14.17;;;1.20;;
4377;SDS011;2203;53.686;9.994;2022-12-07T10:30:33;13.30;;;2.17;;
4377;SDS011;2203;53.686;9.994;2022-12-07T10:36:16;8.47;;;1.67;;
4377;SDS011;2203;53.686;9.994;2022-12-07T10:38:47;6.73;;;1.50;;
4377;SDS011;2203;53.686;9.994;2022-12-07T10:41:14;17.47;;;1.87;;
4377;SDS011;2203;53.686;9.994;2022-12-07T10:43:46;6.60;;;1.60;;
4377;SDS011;2203;53.686;9.994;2022-12-07T10:51:50;11.90;;;1.40;;
4377;SDS011;2203;53.686;9.994;2022-12-07T10:57:46;13.57;;;2.17;;
4377;SDS011;2203;53.686;9.994;2022-12-07T11:11:28;15.87;;;2.10;;
4377;SDS011;2203;53.686;9.994;2022-12-07T11:14:05;11.30;;;1.50;;
4377;SDS011;2203;53.686;9.994;2022-12-07T11:19:29;9.73;;;1.50;;
4377;SDS011;2203;53.686;9.994;2022-12-07T11:22:23;11.53;;;1.80;;
4377;SDS011;2203;53.686;9.994;2022-12-07T11:25:18;9.17;;;1.90;;
4377;SDS011;2203;53.686;9.994;2022-12-07T11:30:23;9.70;;;1.70;;
4377;SDS011;2203;53.686;9.994;2022-12-07T11:38:25;11.63;;;1.90;;
4377;SDS011;2203;53.686;9.994;2022-12-07T11:41:10;21.00;;;3.83;;
4377;SDS011;2203;53.686;9.994;2022-12-07T11:46:22;10.40;;;1.90;;
4377;SDS011;2203;53.686;9.994;2022-12-07T11:51:57;12.87;;;1.90;;
4377;SDS011;2203;53.686;9.994;2022-12-07T11:54:29;13.90;;;2.13;;
4377;SDS011;2203;53.686;9.994;2022-12-07T11:56:59;11.43;;;1.67;;
4377;SDS011;2203;53.686;9.994;2022-12-07T11:59:38;7.37;;;1.47;;
4377;SDS011;2203;53.686;9.994;2022-12-07T12:02:25;15.83;;;2.33;;
4377;SDS011;2203;53.686;9.994;2022-12-07T12:04:59;9.60;;;1.73;;
4377;SDS011;2203;53.686;9.994;2022-12-07T12:07:31;9.20;;;2.23;;
4377;SDS011;2203;53.686;9.994;2022-12-07T12:10:13;20.10;;;2.37;;
4377;SDS011;2203;53.686;9.994;2022-12-07T12:15:51;15.90;;;2.00;;
4377;SDS011;2203;53.686;9.994;2022-12-07T12:21:09;29.43;;;1.90;;
4377;SDS011;2203;53.686;9.994;2022-12-07T12:23:39;10.30;;;1.57;;
4377;SDS011;2203;53.686;9.994;2022-12-07T12:26:07;15.70;;;1.70;;
4377;SDS011;2203;53.686;9.994;2022-12-07T12:28:55;10.77;;;1.63;;
4377;SDS011;2203;53.686;9.994;2022-12-07T12:31:34;6.77;;;1.67;;
4377;SDS011;2203;53.686;9.994;2022-12-07T12:37:03;20.83;;;3.33;;
4377;SDS011;2203;53.686;9.994;2022-12-07T12:42:54;12.03;;;1.40;;
4377;SDS011;2203;53.686;9.994;2022-12-07T12:45:24;8.07;;;1.40;;
4377;SDS011;2203;53.686;9.994;2022-12-07T12:48:10;6.90;;;1.40;;
4377;SDS011;2203;53.686;9.994;2022-12-07T12:54:04;10.37;;;1.53;;
4377;SDS011;2203;53.686;9.994;2022-12-07T12:56:42;9.50;;;1.20;;
4377;SDS011;2203;53.686;9.994;2022-12-07T13:01:46;11.53;;;1.47;;
4377;SDS011;2203;53.686;9.994;2022-12-07T13:07:48;7.40;;;1.00;;
4377;SDS011;2203;53.686;9.994;2022-12-07T13:10:54;12.83;;;1.77;;
4377;SDS011;2203;53.686;9.994;2022-12-07T13:15:43;11.33;;;1.40;;
4377;SDS011;2203;53.686;9.994;2022-12-07T13:21:40;30.47;;;1.60;;
4377;SDS011;2203;53.686;9.994;2022-12-07T13:23:57;10.20;;;2.13;;
4377;SDS011;2203;53.686;9.994;2022-12-07T13:31:43;2.57;;;1.00;;
4377;SDS011;2203;53.686;9.994;2022-12-07T13:37:25;8.50;;;1.30;;
4377;SDS011;2203;53.686;9.994;2022-12-07T13:39:56;17.43;;;2.90;;
4377;SDS011;2203;53.686;9.994;2022-12-07T13:42:27;10.30;;;1.07;;
4377;SDS011;2203;53.686;9.994;2022-12-07T13:44:54;6.60;;;0.90;;
4377;SDS011;2203;53.686;9.994;2022-12-07T13:47:28;3.87;;;1.13;;
4377;SDS011;2203;53.686;9.994;2022-12-07T13:49:58;4.87;;;1.20;;
4377;SDS011;2203;53.686;9.994;2022-12-07T13:52:24;9.93;;;1.80;;
4377;SDS011;2203;53.686;9.994;2022-12-07T13:54:56;23.13;;;9.50;;
4377;SDS011;2203;53.686;9.994;2022-12-07T13:57:25;9.23;;;2.30;;
4377;SDS011;2203;53.686;9.994;2022-12-07T13:59:51;13.93;;;2.83;;
4377;SDS011;2203;53.686;9.994;2022-12-07T14:05:05;5.97;;;1.23;;
4377;SDS011;2203;53.686;9.994;2022-12-07T14:07:54;3.83;;;1.20;;
4377;SDS011;2203;53.686;9.994;2022-12-07T14:10:28;1.37;;;0.80;;
4377;SDS011;2203;53.686;9.994;2022-12-07T14:12:58;3.53;;;0.90;;
4377;SDS011;2203;53.686;9.994;2022-12-07T14:15:32;2.30;;;1.20;;
4377;SDS011;2203;53.686;9.994;2022-12-07T14:17:59;2.93;;;0.80;;
4377;SDS011;2203;53.686;9.994;2022-12-07T14:20:35;11.73;;;1.20;;
4377;SDS011;2203;53.686;9.994;2022-12-07T14:23:03;19.87;;;1.20;;
4377;SDS011;2203;53.686;9.994;2022-12-07T14:25:44;4.60;;;1.20;;
4377;SDS011;2203;53.686;9.994;2022-12-07T14:30:55;3.60;;;1.17;;
4377;SDS011;2203;53.686;9.994;2022-12-07T14:33:21;5.07;;;1.83;;
4377;SDS011;2203;53.686;9.994;2022-12-07T14:35:47;3.40;;;0.97;;
4377;SDS011;2203;53.686;9.994;2022-12-07T14:38:12;23.93;;;2.93;;
4377;SDS011;2203;53.686;9.994;2022-12-07T14:40:38;9.40;;;1.33;;
4377;SDS011;2203;53.686;9.994;2022-12-07T14:43:04;7.53;;;1.60;;
4377;SDS011;2203;53.686;9.994;2022-12-07T14:45:33;3.77;;;1.13;;
4377;SDS011;2203;53.686;9.994;2022-12-07T14:47:58;4.50;;;1.10;;
4377;SDS011;2203;53.686;9.994;2022-12-07T14:50:24;4.30;;;1.60;;
4377;SDS011;2203;53.686;9.994;2022-12-07T14:52:54;5.23;;;1.20;;
4377;SDS011;2203;53.686;9.994;2022-12-07T14:55:28;7.03;;;1.33;;
4377;SDS011;2203;53.686;9.994;2022-12-07T14:57:55;3.53;;;1.00;;
4377;SDS011;2203;53.686;9.994;2022-12-07T15:00:21;4.73;;;1.00;;
4377;SDS011;2203;53.686;9.994;2022-12-07T15:02:48;9.40;;;1.23;;
4377;SDS011;2203;53.686;9.994;2022-12-07T15:05:14;8.70;;;1.20;;
4377;SDS011;2203;53.686;9.994;2022-12-07T15:07:40;4.60;;;0.80;;
4377;SDS011;2203;53.686;9.994;2022-12-07T15:10:06;3.00;;;1.00;;
4377;SDS011;2203;53.686;9.994;2022-12-07T15:12:34;4.40;;;1.83;;
4377;SDS011;2203;53.686;9.994;2022-12-07T15:14:59;5.90;;;1.20;;
4377;SDS011;2203;53.686;9.994;2022-12-07T15:17:26;7.57;;;1.10;;
4377;SDS011;2203;53.686;9.994;2022-12-07T15:19:52;4.87;;;1.13;;
4377;SDS011;2203;53.686;9.994;2022-12-07T15:22:17;5.30;;;1.47;;
4377;SDS011;2203;53.686;9.994;2022-12-07T15:24:42;2.30;;;1.00;;
4377;SDS011;2203;53.686;9.994;2022-12-07T15:27:08;25.40;;;9.10;;
4377;SDS011;2203;53.686;9.994;2022-12-07T15:29:33;12.73;;;1.80;;
4377;SDS011;2203;53.686;9.994;2022-12-07T15:31:58;2.40;;;1.13;;
4377;SDS011;2203;53.686;9.994;2022-12-07T15:34:25;2.43;;;0.90;;
4377;SDS011;2203;53.686;9.994;2022-12-07T15:36:51;8.07;;;1.40;;
4377;SDS011;2203;53.686;9.994;2022-12-07T15:39:16;7.37;;;2.20;;
4377;SDS011;2203;53.686;9.994;2022-12-07T15:41:42;5.90;;;1.93;;
4377;SDS011;2203;53.686;9.994;2022-12-07T15:44:09;11.10;;;1.33;;
4377;SDS011;2203;53.686;9.994;2022-12-07T15:46:55;6.60;;;1.13;;
4377;SDS011;2203;53.686;9.994;2022-12-07T15:49:23;7.50;;;1.17;;
4377;SDS011;2203;53.686;9.994;2022-12-07T15:51:49;3.33;;;1.10;;
4377;SDS011;2203;53.686;9.994;2022-12-07T15:54:19;14.67;;;2.00;;
4377;SDS011;2203;53.686;9.994;2022-12-07T15:56:46;14.30;;;2.20;;
4377;SDS011;2203;53.686;9.994;2022-12-07T15:59:12;3.50;;;1.43;;
4377;SDS011;2203;53.686;9.994;2022-12-07T16:01:37;7.43;;;2.00;;
4377;SDS011;2203;53.686;9.994;2022-12-07T16:04:03;11.70;;;1.60;;
4377;SDS011;2203;53.686;9.994;2022-12-07T16:06:28;6.23;;;1.30;;
4377;SDS011;2203;53.686;9.994;2022-12-07T16:08:53;5.23;;;1.70;;
4377;SDS011;2203;53.686;9.994;2022-12-07T16:11:19;3.40;;;1.20;;
4377;SDS011;2203;53.686;9.994;2022-12-07T16:13:45;9.10;;;1.97;;
4377;SDS011;2203;53.686;9.994;2022-12-07T16:16:12;8.43;;;1.20;;
4377;SDS011;2203;53.686;9.994;2022-12-07T16:18:38;16.17;;;2.57;;
4377;SDS011;2203;53.686;9.994;2022-12-07T16:21:04;13.13;;;1.63;;
4377;SDS011;2203;53.686;9.994;2022-12-07T16:23:30;4.23;;;1.40;;
4377;SDS011;2203;53.686;9.994;2022-12-07T16:26:03;4.10;;;0.90;;
4377;SDS011;2203;53.686;9.994;2022-12-07T16:28:30;5.30;;;0.97;;
4377;SDS011;2203;53.686;9.994;2022-12-07T16:31:02;8.20;;;2.00;;
4377;SDS011;2203;53.686;9.994;2022-12-07T16:33:29;7.20;;;1.90;;
4377;SDS011;2203;53.686;9.994;2022-12-07T16:35:54;19.43;;;3.10;;
4377;SDS011;2203;53.686;9.994;2022-12-07T16:38:19;4.20;;;1.47;;
4377;SDS011;2203;53.686;9.994;2022-12-07T16:40:46;8.40;;;1.80;;
4377;SDS011;2203;53.686;9.994;2022-12-07T16:43:12;8.93;;;1.70;;
4377;SDS011;2203;53.686;9.994;2022-12-07T16:45:38;3.50;;;1.53;;
4377;SDS011;2203;53.686;9.994;2022-12-07T16:48:03;4.40;;;1.70;;
4377;SDS011;2203;53.686;9.994;2022-12-07T16:50:29;9.50;;;1.83;;
4377;SDS011;2203;53.686;9.994;2022-12-07T16:52:54;13.47;;;1.77;;
4377;SDS011;2203;53.686;9.994;2022-12-07T16:55:20;3.10;;;1.50;;
4377;SDS011;2203;53.686;9.994;2022-12-07T16:57:45;8.23;;;1.83;;
4377;SDS011;2203;53.686;9.994;2022-12-07T17:00:10;7.27;;;1.87;;
4377;SDS011;2203;53.686;9.994;2022-12-07T17:02:36;8.60;;;1.57;;
4377;SDS011;2203;53.686;9.994;2022-12-07T17:05:01;7.40;;;2.50;;
4377;SDS011;2203;53.686;9.994;2022-12-07T17:07:27;8.77;;;2.03;;
4377;SDS011;2203;53.686;9.994;2022-12-07T17:09:52;4.73;;;1.63;;
4377;SDS011;2203;53.686;9.994;2022-12-07T17:12:18;16.33;;;2.27;;
4377;SDS011;2203;53.686;9.994;2022-12-07T17:14:43;9.40;;;3.30;;